createdAt,value
2023-04-01T00:01:10.220Z,1.80
2023-04-01T00:03:38.868Z,1.80
2023-04-01T00:06:07.432Z,1.63
2023-04-01T00:08:35.650Z,2.00
2023-04-01T00:11:04.247Z,1.95
2023-04-01T00:13:34.301Z,1.83
2023-04-01T00:16:06.614Z,1.65
2023-04-01T00:18:38.515Z,1.83
2023-04-01T00:21:06.518Z,1.70
2023-04-01T00:23:35.176Z,1.90
2023-04-01T00:26:05.320Z,1.90
2023-04-01T00:28:37.580Z,1.50
2023-04-01T00:31:08.319Z,1.60
2023-04-01T00:33:36.678Z,1.92
2023-04-01T00:36:10.337Z,1.50
2023-04-01T00:38:38.950Z,1.58
2023-04-01T00:41:07.981Z,1.27
2023-04-01T00:43:38.298Z,1.40
2023-04-01T00:46:06.765Z,1.13
2023-04-01T00:48:38.582Z,1.17
2023-04-01T00:51:09.824Z,1.20
2023-04-01T00:53:42.637Z,1.17
2023-04-01T00:56:17.910Z,1.42
2023-04-01T00:58:53.308Z,1.58
2023-04-01T01:01:23.876Z,1.60
2023-04-01T01:03:52.262Z,1.50
2023-04-01T01:06:33.883Z,1.50
2023-04-01T01:09:16.393Z,1.20
2023-04-01T01:11:49.416Z,1.13
2023-04-01T01:14:32.069Z,1.13
2023-04-01T01:17:09.132Z,1.20
2023-04-01T01:19:54.860Z,1.40
2023-04-01T01:22:38.903Z,1.30
2023-04-01T01:25:21.475Z,1.85
2023-04-01T01:27:57.551Z,1.50
2023-04-01T01:30:40.955Z,1.38
2023-04-01T01:33:43.362Z,1.52
2023-04-01T01:36:16.000Z,1.70
2023-04-01T01:38:44.392Z,1.25
2023-04-01T01:41:15.924Z,1.65
2023-04-01T01:43:46.988Z,1.40
2023-04-01T01:46:18.979Z,1.70
2023-04-01T01:48:48.439Z,1.67
2023-04-01T01:51:18.427Z,1.90
2023-04-01T01:53:46.125Z,1.75
2023-04-01T01:56:15.484Z,1.77
2023-04-01T01:58:47.104Z,1.55
2023-04-01T02:01:20.090Z,1.90
2023-04-01T02:03:48.622Z,2.13
2023-04-01T02:06:21.401Z,2.17
2023-04-01T02:08:52.904Z,2.42
2023-04-01T02:11:25.528Z,2.30
2023-04-01T02:13:58.051Z,2.10
2023-04-01T02:16:31.050Z,2.25
2023-04-01T02:19:00.533Z,2.83
2023-04-01T02:21:34.008Z,2.50
2023-04-01T02:24:04.916Z,2.42
2023-04-01T02:26:32.808Z,2.63
2023-04-01T02:29:03.414Z,2.55
2023-04-01T02:31:31.489Z,2.33
2023-04-01T02:33:59.752Z,2.78
2023-04-01T02:36:28.295Z,2.30
2023-04-01T02:39:03.113Z,2.25
2023-04-01T02:41:31.414Z,2.42
2023-04-01T02:44:00.287Z,2.65
2023-04-01T02:46:28.029Z,2.50
2023-04-01T02:48:56.279Z,2.72
2023-04-01T02:51:23.956Z,3.00
2023-04-01T02:53:51.630Z,2.40
2023-04-01T02:56:21.468Z,2.60
2023-04-01T02:58:49.128Z,2.85
2023-04-01T03:01:16.939Z,3.17
2023-04-01T03:03:45.065Z,2.75
2023-04-01T03:06:14.797Z,2.90
2023-04-01T03:08:42.590Z,2.90
2023-04-01T03:11:11.967Z,3.40
2023-04-01T03:13:41.131Z,3.58
2023-04-01T03:16:09.151Z,3.05
2023-04-01T03:18:37.446Z,3.00
2023-04-01T03:21:18.076Z,2.95
2023-04-01T03:23:46.375Z,3.00
2023-04-01T03:26:14.518Z,3.20
2023-04-01T03:28:43.627Z,3.08
2023-04-01T03:31:12.126Z,3.60
2023-04-01T03:33:40.019Z,3.60
2023-04-01T03:36:08.271Z,3.90
2023-04-01T03:38:36.927Z,4.32
2023-04-01T03:41:04.739Z,4.22
2023-04-01T03:43:32.414Z,4.22
2023-04-01T03:46:02.164Z,4.72
2023-04-01T03:48:29.867Z,3.88
2023-04-01T03:50:57.557Z,4.57
2023-04-01T03:53:26.040Z,4.40
2023-04-01T03:55:53.726Z,4.78
2023-04-01T03:58:21.720Z,4.68
2023-04-01T04:00:50.134Z,4.72
2023-04-01T04:03:19.389Z,5.00
2023-04-01T04:05:51.772Z,5.13
2023-04-01T04:08:19.670Z,4.60
2023-04-01T04:10:47.475Z,5.05
2023-04-01T04:13:15.784Z,4.90
2023-04-01T04:15:43.470Z,4.85
2023-04-01T04:18:11.136Z,4.47
2023-04-01T04:20:47.313Z,4.20
2023-04-01T04:23:14.998Z,4.65
2023-04-01T04:25:42.679Z,3.88
2023-04-01T04:28:11.007Z,4.85
2023-04-01T04:30:38.698Z,3.90
2023-04-01T04:33:06.414Z,3.80
2023-04-01T04:35:35.948Z,2.90
2023-04-01T04:40:32.613Z,3.80
2023-04-01T04:43:00.310Z,3.50
2023-04-01T04:45:27.971Z,3.47
2023-04-01T04:47:55.685Z,3.67
2023-04-01T04:50:24.042Z,3.40
2023-04-01T04:52:52.838Z,3.50
2023-04-01T04:55:22.549Z,3.40
2023-04-01T05:00:18.807Z,3.17
2023-04-01T05:02:46.603Z,2.78
2023-04-01T05:05:14.789Z,4.40
2023-04-01T05:07:42.497Z,6.88
2023-04-01T05:10:11.135Z,4.50
2023-04-01T05:12:40.881Z,3.88
2023-04-01T05:15:10.279Z,4.45
2023-04-01T05:17:38.006Z,4.40
2023-04-01T05:20:07.430Z,3.30
2023-04-01T05:22:35.409Z,3.40
2023-04-01T05:25:03.076Z,3.45
2023-04-01T05:27:31.236Z,3.30
2023-04-01T05:30:00.440Z,2.42
2023-04-01T05:32:28.190Z,3.70
2023-04-01T05:34:56.205Z,3.42
2023-04-01T05:37:24.910Z,3.60
2023-04-01T05:39:52.581Z,4.30
2023-04-01T05:49:58.207Z,4.40
2023-04-01T05:54:53.580Z,4.72
2023-04-01T05:57:22.381Z,4.80
2023-04-01T05:59:50.113Z,5.22
2023-04-01T06:02:19.501Z,5.35
2023-04-01T06:04:48.251Z,5.30
2023-04-01T06:07:19.444Z,6.13
2023-04-01T06:09:47.732Z,5.63
2023-04-01T06:12:41.186Z,5.20
2023-04-01T06:15:20.624Z,5.80
2023-04-01T06:18:07.250Z,6.28
2023-04-01T06:20:42.016Z,5.95
2023-04-01T06:23:35.515Z,5.95
2023-04-01T06:26:17.332Z,6.38
2023-04-01T06:29:08.617Z,5.68
2023-04-01T06:31:48.960Z,6.18
2023-04-01T06:34:38.369Z,6.03
2023-04-01T06:37:19.139Z,6.03
2023-04-01T06:40:20.120Z,6.82
2023-04-01T06:43:01.974Z,5.85
2023-04-01T06:45:37.510Z,6.50
2023-04-01T06:48:24.457Z,6.40
2023-04-01T06:51:03.651Z,6.35
2023-04-01T06:53:41.581Z,6.50
2023-04-01T06:56:12.420Z,6.25
2023-04-01T06:58:47.115Z,6.13
2023-04-01T07:01:20.611Z,5.80
2023-04-01T07:03:54.990Z,5.43
2023-04-01T07:06:31.127Z,5.65
2023-04-01T07:09:05.604Z,4.95
2023-04-01T07:11:38.192Z,4.90
2023-04-01T07:14:15.806Z,4.40
2023-04-01T07:16:49.667Z,4.03
2023-04-01T07:19:22.938Z,4.20
2023-04-01T07:21:55.403Z,3.92
2023-04-01T07:24:27.522Z,4.00
2023-04-01T07:26:59.572Z,3.65
2023-04-01T07:29:30.003Z,3.63
2023-04-01T07:32:23.742Z,3.55
2023-04-01T07:35:06.119Z,3.28
2023-04-01T07:37:41.680Z,3.53
2023-04-01T07:40:23.138Z,3.47
2023-04-01T07:43:08.159Z,3.42
2023-04-01T07:45:43.104Z,4.10
2023-04-01T07:48:23.459Z,3.40
2023-04-01T07:50:58.513Z,2.63
2023-04-01T07:53:37.604Z,2.38
2023-04-01T07:56:12.304Z,2.80
2023-04-01T07:58:53.256Z,2.20
2023-04-01T08:01:33.429Z,1.90
2023-04-01T08:04:23.838Z,1.52
2023-04-01T08:06:58.671Z,1.63
2023-04-01T08:09:36.281Z,2.33
2023-04-01T08:12:15.592Z,2.00
2023-04-01T08:14:55.098Z,1.80
2023-04-01T08:17:32.666Z,2.30
2023-04-01T08:20:14.742Z,1.65
2023-04-01T08:22:44.257Z,1.50
2023-04-01T08:25:19.019Z,2.00
2023-04-01T08:27:50.053Z,2.03
2023-04-01T08:30:21.545Z,2.75
2023-04-01T08:32:57.829Z,2.97
2023-04-01T08:35:33.296Z,2.30
2023-04-01T08:38:08.678Z,3.10
2023-04-01T08:40:58.046Z,16.30
2023-04-01T08:43:42.008Z,4.72
2023-04-01T08:46:23.716Z,2.60
2023-04-01T08:49:08.318Z,4.55
2023-04-01T08:52:07.687Z,2.47
2023-04-01T08:55:00.093Z,3.28
2023-04-01T08:57:40.257Z,3.00
2023-04-01T09:00:21.164Z,2.85
2023-04-01T09:03:17.811Z,1.98
2023-04-01T09:06:30.784Z,1.65
2023-04-01T09:09:23.866Z,2.10
2023-04-01T09:12:17.920Z,1.85
2023-04-01T09:15:06.339Z,2.00
2023-04-01T09:18:06.892Z,1.58
2023-04-01T09:21:02.070Z,1.80
2023-04-01T09:24:06.819Z,2.03
2023-04-01T09:26:53.268Z,3.88
2023-04-01T09:29:34.685Z,2.08
2023-04-01T09:32:38.529Z,1.90
2023-04-01T09:35:21.132Z,2.10
2023-04-01T09:37:56.183Z,2.13
2023-04-01T09:40:38.417Z,2.00
2023-04-01T09:43:25.217Z,2.42
2023-04-01T09:46:11.391Z,2.35
2023-04-01T09:49:08.090Z,1.83
2023-04-01T09:51:42.867Z,2.05
2023-04-01T09:54:24.261Z,1.70
2023-04-01T09:57:24.284Z,1.90
2023-04-01T10:00:20.336Z,1.85
2023-04-01T10:03:18.448Z,1.90
2023-04-01T10:06:28.276Z,1.60
2023-04-01T10:09:20.031Z,1.77
2023-04-01T10:12:21.647Z,1.80
2023-04-01T10:15:22.480Z,1.75
2023-04-01T10:18:14.761Z,1.60
2023-04-01T10:21:06.655Z,1.42
2023-04-01T10:23:56.796Z,1.58
2023-04-01T10:27:11.243Z,1.85
2023-04-01T10:30:04.782Z,1.55
2023-04-01T10:33:03.721Z,1.40
2023-04-01T10:36:12.977Z,1.45
2023-04-01T10:39:29.162Z,1.33
2023-04-01T10:42:26.892Z,2.13
2023-04-01T10:45:29.184Z,1.30
2023-04-01T10:48:17.492Z,1.10
2023-04-01T10:51:16.800Z,1.10
2023-04-01T10:53:51.892Z,1.60
2023-04-01T10:56:41.551Z,1.40
2023-04-01T11:02:18.450Z,1.40
2023-04-01T11:05:27.845Z,1.23
2023-04-01T11:08:49.504Z,2.50
2023-04-01T11:12:01.313Z,3.03
2023-04-01T11:15:05.058Z,5.15
2023-04-01T11:18:16.229Z,3.50
2023-04-01T11:21:32.803Z,2.42
2023-04-01T11:24:34.354Z,2.30
2023-04-01T11:27:16.521Z,2.30
2023-04-01T11:30:18.545Z,2.22
2023-04-01T11:32:56.552Z,2.00
2023-04-01T11:35:42.628Z,1.92
2023-04-01T11:38:28.248Z,1.90
2023-04-01T11:41:04.359Z,1.50
2023-04-01T11:43:40.715Z,1.55
2023-04-01T11:46:13.354Z,1.52
2023-04-01T11:48:54.628Z,1.90
2023-04-01T11:51:42.223Z,1.67
2023-04-01T11:54:27.755Z,1.80
2023-04-01T11:57:10.224Z,1.90
2023-04-01T12:00:13.026Z,2.03
2023-04-01T12:02:54.261Z,1.70
2023-04-01T12:05:36.516Z,1.58
2023-04-01T12:08:18.673Z,1.50
2023-04-01T12:10:55.418Z,1.75
2023-04-01T12:13:38.356Z,1.63
2023-04-01T12:16:17.848Z,1.60
2023-04-01T12:18:54.782Z,1.73
2023-04-01T12:21:29.578Z,1.80
2023-04-01T12:24:17.218Z,1.90
2023-04-01T12:27:11.599Z,1.95
2023-04-01T12:30:21.190Z,1.70
2023-04-01T12:35:26.192Z,2.08
2023-04-01T12:38:11.141Z,1.80
2023-04-01T12:40:49.924Z,1.80
2023-04-01T12:43:48.641Z,2.17
2023-04-01T12:46:22.425Z,2.20
2023-04-01T12:49:21.775Z,2.15
2023-04-01T12:52:04.801Z,2.30
2023-04-01T12:55:05.825Z,2.47
2023-04-01T12:58:09.690Z,2.22
2023-04-01T13:00:50.900Z,2.60
2023-04-01T13:03:46.581Z,3.00
2023-04-01T13:06:30.581Z,2.58
2023-04-01T13:09:08.594Z,2.70
2023-04-01T13:11:48.383Z,2.28
2023-04-01T13:14:34.054Z,2.40
2023-04-01T13:17:13.862Z,2.70
2023-04-01T13:20:01.895Z,3.65
2023-04-01T13:23:01.332Z,3.30
2023-04-01T13:25:39.001Z,3.88
2023-04-01T13:28:15.128Z,4.10
2023-04-01T13:30:50.712Z,3.28
2023-04-01T13:33:30.962Z,4.05
2023-04-01T13:36:10.463Z,3.55
2023-04-01T13:39:07.204Z,3.95
2023-04-01T13:41:53.628Z,3.13
2023-04-01T13:44:30.066Z,5.20
2023-04-01T13:47:11.634Z,4.35
2023-04-01T13:50:07.278Z,4.13
2023-04-01T13:52:59.645Z,2.47
2023-04-01T13:55:36.653Z,3.70
2023-04-01T13:58:30.488Z,4.28
2023-04-01T14:01:07.605Z,2.60
2023-04-01T14:03:52.484Z,1.98
2023-04-01T14:06:31.350Z,2.40
2023-04-01T14:09:27.749Z,4.05
2023-04-01T14:12:03.421Z,6.68
2023-04-01T14:14:46.135Z,3.95
2023-04-01T14:17:26.569Z,5.28
2023-04-01T14:20:16.717Z,2.33
2023-04-01T14:23:01.946Z,3.70
2023-04-01T14:26:06.462Z,2.95
2023-04-01T14:28:45.819Z,3.58
2023-04-01T14:31:34.515Z,4.50
2023-04-01T14:34:13.446Z,5.57
2023-04-01T14:36:51.529Z,5.38
2023-04-01T14:39:52.000Z,3.13
2023-04-01T14:42:47.556Z,4.22
2023-04-01T14:45:35.871Z,3.60
2023-04-01T14:48:17.777Z,5.22
2023-04-01T14:50:48.794Z,6.22
2023-04-01T14:53:29.424Z,4.53
2023-04-01T14:56:00.993Z,3.55
2023-04-01T14:58:45.811Z,4.97
2023-04-01T15:01:27.941Z,6.72
2023-04-01T15:04:06.829Z,4.20
2023-04-01T15:06:53.241Z,3.72
2023-04-01T15:09:31.575Z,1.98
2023-04-01T15:12:13.764Z,1.50
2023-04-01T15:15:12.564Z,1.30
2023-04-01T15:17:57.107Z,1.20
2023-04-01T15:20:50.751Z,1.20
2023-04-01T15:23:30.119Z,1.30
2023-04-01T15:26:34.633Z,1.30
2023-04-01T15:29:17.483Z,1.77
2023-04-01T15:31:54.125Z,1.50
2023-04-01T15:34:32.154Z,1.30
2023-04-01T15:37:07.486Z,2.85
2023-04-01T15:39:56.597Z,2.10
2023-04-01T15:42:37.180Z,4.07
2023-04-01T15:45:17.203Z,2.40
2023-04-01T15:47:55.304Z,1.70
2023-04-01T15:50:55.471Z,1.70
2023-04-01T15:53:53.875Z,1.48
2023-04-01T15:56:47.026Z,1.98
2023-04-01T15:59:31.417Z,2.55
2023-04-01T16:02:10.670Z,1.60
2023-04-01T16:04:59.495Z,5.28
2023-04-01T16:07:42.333Z,4.35
2023-04-01T16:10:24.079Z,7.30
2023-04-01T16:13:04.227Z,6.80
2023-04-01T16:15:41.898Z,6.43
2023-04-01T16:18:25.041Z,4.00
2023-04-01T16:20:58.512Z,7.43
2023-04-01T16:23:31.965Z,4.75
2023-04-01T16:26:07.911Z,4.63
2023-04-01T16:28:42.170Z,4.45
2023-04-01T16:31:16.403Z,4.13
2023-04-01T16:33:53.110Z,4.40
2023-04-01T16:36:30.712Z,4.65
2023-04-01T16:39:14.646Z,4.60
2023-04-01T16:41:50.752Z,7.53
2023-04-01T16:44:22.442Z,5.43
2023-04-01T16:46:54.566Z,6.13
2023-04-01T16:49:32.393Z,5.70
2023-04-01T16:52:15.999Z,4.18
2023-04-01T16:54:49.783Z,3.55
2023-04-01T16:57:25.535Z,4.88
2023-04-01T17:00:01.757Z,6.75
2023-04-01T17:02:33.936Z,3.20
2023-04-01T17:05:08.007Z,4.43
2023-04-01T17:07:49.147Z,3.80
2023-04-01T17:10:30.052Z,3.40
2023-04-01T17:13:21.474Z,4.40
2023-04-01T17:15:58.944Z,4.38
2023-04-01T17:18:39.692Z,3.63
2023-04-01T17:21:12.416Z,4.50
2023-04-01T17:23:46.256Z,4.30
2023-04-01T17:26:34.924Z,6.50
2023-04-01T17:29:14.427Z,5.97
2023-04-01T17:31:54.881Z,5.90
2023-04-01T17:34:42.120Z,3.38
2023-04-01T17:37:32.841Z,2.50
2023-04-01T17:40:18.951Z,2.05
2023-04-01T17:42:55.894Z,1.95
2023-04-01T17:45:26.488Z,3.20
2023-04-01T17:48:10.851Z,2.90
2023-04-01T17:50:52.219Z,3.00
2023-04-01T17:53:32.452Z,3.20
2023-04-01T17:56:17.144Z,3.90
2023-04-01T17:58:48.463Z,3.13
2023-04-01T18:01:37.359Z,3.63
2023-04-01T18:04:19.757Z,3.65
2023-04-01T18:07:07.118Z,3.05
2023-04-01T18:09:46.794Z,5.03
2023-04-01T18:15:07.376Z,7.05
2023-04-01T18:17:48.441Z,7.38
2023-04-01T18:20:33.780Z,4.30
2023-04-01T18:23:07.492Z,3.83
2023-04-01T18:25:41.681Z,4.38
2023-04-01T18:28:23.670Z,3.55
2023-04-01T18:30:58.711Z,4.28
2023-04-01T18:33:34.198Z,3.88
2023-04-01T18:36:15.550Z,3.85
2023-04-01T18:38:51.331Z,4.57
2023-04-01T18:41:29.568Z,4.57
2023-04-01T18:44:09.204Z,4.85
2023-04-01T18:49:15.957Z,5.20
2023-04-01T18:51:50.553Z,4.40
2023-04-01T18:54:27.378Z,5.05
2023-04-01T18:57:05.084Z,5.53
2023-04-01T18:59:40.880Z,4.70
2023-04-01T19:02:21.908Z,4.65
2023-04-01T19:04:59.089Z,4.32
2023-04-01T19:07:48.816Z,4.03
2023-04-01T19:10:28.548Z,4.68
2023-04-01T19:13:12.114Z,5.28
2023-04-01T19:15:46.677Z,5.63
2023-04-01T19:18:42.947Z,6.82
2023-04-01T19:21:18.654Z,6.82
2023-04-01T19:24:09.263Z,7.18
2023-04-01T19:26:42.798Z,7.30
2023-04-01T19:29:26.177Z,7.95
2023-04-01T19:32:06.560Z,7.57
2023-04-01T19:34:43.110Z,8.68
2023-04-01T19:37:21.240Z,8.70
2023-04-01T19:39:56.614Z,9.13
2023-04-01T19:42:34.689Z,10.32
2023-04-01T19:45:18.907Z,9.63
2023-04-01T19:47:59.655Z,8.95
2023-04-01T19:50:36.631Z,9.20
2023-04-01T19:53:17.578Z,9.65
2023-04-01T19:55:50.751Z,9.80
2023-04-01T19:58:27.021Z,9.68
2023-04-01T20:01:00.356Z,8.95
2023-04-01T20:03:41.583Z,9.75
2023-04-01T20:06:19.930Z,10.43
2023-04-01T20:08:56.559Z,10.50
2023-04-01T20:11:38.116Z,9.32
2023-04-01T20:14:17.256Z,9.30
2023-04-01T20:17:20.912Z,8.57
2023-04-01T20:19:57.535Z,8.15
2023-04-01T20:22:36.491Z,8.32
2023-04-01T20:25:14.780Z,7.97
2023-04-01T20:27:47.808Z,7.55
2023-04-01T20:30:31.425Z,8.38
2023-04-01T20:33:16.554Z,7.72
2023-04-01T20:35:52.399Z,8.07
2023-04-01T20:39:02.924Z,8.63
2023-04-01T20:41:39.664Z,9.13
2023-04-01T20:44:12.845Z,9.20
2023-04-01T20:46:48.433Z,9.80
2023-04-01T20:49:32.530Z,9.15
2023-04-01T20:52:07.080Z,9.77
2023-04-01T20:54:49.971Z,9.35
2023-04-01T20:57:27.531Z,9.40
2023-04-01T21:00:20.653Z,9.38
2023-04-01T21:03:02.677Z,8.88
2023-04-01T21:06:01.807Z,8.07
2023-04-01T21:08:42.407Z,8.65
2023-04-01T21:11:19.309Z,8.60
2023-04-01T21:14:15.132Z,8.95
2023-04-01T21:16:51.824Z,9.43
2023-04-01T21:19:43.572Z,9.73
2023-04-01T21:22:32.842Z,9.23
2023-04-01T21:25:23.704Z,8.50
2023-04-01T21:28:04.995Z,8.82
2023-04-01T21:30:55.171Z,8.93
2023-04-01T21:33:39.003Z,9.07
2023-04-01T21:36:19.894Z,9.27
2023-04-01T21:39:04.236Z,9.00
2023-04-01T21:41:55.432Z,8.73
2023-04-01T21:44:37.568Z,9.00
2023-04-01T21:47:33.958Z,8.82
2023-04-01T21:50:49.415Z,9.63
2023-04-01T21:53:40.001Z,8.75
2023-04-01T21:56:44.530Z,8.93
2023-04-01T21:59:54.517Z,9.25
2023-04-01T22:02:48.922Z,9.20
2023-04-01T22:05:22.809Z,9.15
2023-04-01T22:07:57.741Z,8.48
2023-04-01T22:10:34.974Z,8.30
2023-04-01T22:13:14.572Z,7.80
2023-04-01T22:18:35.765Z,8.05
2023-04-01T22:21:10.685Z,7.72
2023-04-01T22:23:45.657Z,9.05
2023-04-01T22:26:20.372Z,7.72
2023-04-01T22:28:57.270Z,7.22
2023-04-01T22:31:31.138Z,7.50
2023-04-01T22:34:06.616Z,7.07
2023-04-01T22:36:46.569Z,7.65
2023-04-01T22:39:29.035Z,8.07
2023-04-01T22:42:09.352Z,8.07
2023-04-01T22:44:54.134Z,8.43
2023-04-01T22:47:27.399Z,8.52
2023-04-01T22:50:04.565Z,8.90
2023-04-01T22:52:36.615Z,9.13
2023-04-01T22:55:10.346Z,10.02
2023-04-01T22:57:44.121Z,10.93
2023-04-01T23:00:19.637Z,10.35
2023-04-01T23:02:53.043Z,9.63
2023-04-01T23:05:23.348Z,9.15
2023-04-01T23:07:59.209Z,9.73
2023-04-01T23:10:29.734Z,10.55
2023-04-01T23:13:01.152Z,10.32
2023-04-01T23:15:31.391Z,9.98
2023-04-01T23:18:08.280Z,10.07
2023-04-01T23:20:48.940Z,9.82
2023-04-01T23:23:37.885Z,9.20
2023-04-01T23:26:11.426Z,10.10
2023-04-01T23:28:46.562Z,9.55
2023-04-01T23:31:31.747Z,9.27
2023-04-01T23:34:02.020Z,9.55
2023-04-01T23:36:31.643Z,10.25
2023-04-01T23:41:32.697Z,10.38
2023-04-01T23:44:06.292Z,10.70
2023-04-01T23:46:37.524Z,9.77
2023-04-01T23:49:08.169Z,9.98
2023-04-01T23:51:40.624Z,10.23
2023-04-01T23:54:19.424Z,10.50
2023-04-01T23:56:50.710Z,10.60
2023-04-01T23:59:20.787Z,10.60
